Terminal Aerodrome Forecast
Issued by NWS

Home | Current Version | Previous Version | Graphics & Text | Print | Product List | Glossary On
Versions: 1 2 3 4 5 6 7 8 9 10 11 12 13 14
000
FTUS43 KLSX 112300
TAFCPS
TAF
KCPS 112320Z 1200/1224 16008KT P6SM SCT040 BKN250
     FM120100 17004KT P6SM BKN150
     FM121500 22007KT P6SM SCT150=

USA.gov is the U.S. government's official web portal to all federal, state and local government web resources and services.